Charleston, SC

8:36 AM EDT on March 28, 2017 (GMT -0400)
Downtown Charleston | | Change Station
Active Advisory: Coastal Hazard Statement Active Notice: Coastal Hazard Statement

Elev 23 ft 32.79 °N, 79.95 °W | Updated 12 seconds ago

Clear
Clear
70.7 °F
Feels Like 73 °F
N
2.7
Wind Variable Wind from WSW
Gusts 4.9 mph

Today
High -- | Low -- °F
--% Chance of Precip.
Yesterday
High -- | Low -- °F
Precip. -- in
Pressure 30.02 in
Visibility 10.0 miles
Clouds Clear
Heat Index 73 °F
Dew Point 62 °F
Humidity 75%
Rainfall 0.00 in
Snow Depth Not available.
7:12 AM 7:37 PM
New Moon, 0% visible
METAR KJZI 281215Z AUTO 20005KT 10SM CLR 19/17 A3002 RMK AO2
Pressure 30.02 in
Visibility 10.0 miles
Clouds Clear
Heat Index 73 °F
Dew Point 62 °F
Humidity 75%
Rainfall 0.00 in
Snow Depth Not available.
7:12 AM 7:37 PM
New Moon, 0% visible
METAR KJZI 281215Z AUTO 20005KT 10SM CLR 19/17 A3002 RMK AO2

Get Your Daily Forecast Email!

Thanks for signing up!

Be on the lookout for a verification email in your inbox.

You'll start receiving severe weather alerts in your inbox..

×

10-Day Weather Forecast

Almanac

Astronomy

Mar. 28, 2017 Rise Set
Actual Time
Civil Twilight
Nautical Twilight
Astronomical Twilight
Moon
Length of Visible Light
Length of Day
Tomorrow will be .
, % of the Moon is Illuminated

Today's Extremes

State Highs State Lows

Community

WunderPhotos

Upload Photos

1,962,540 photos uploaded!

WunderBlog® & News

Nearby

Air Quality

  Air Quality AQ Index Pollutant
Not available.

Snow Depth

Station Depth Elevation

Earthquake Activity

City Distance Mag. Time & Date
Minimum magnitude displayed is 2.5.

Earthquake Activity

City Distance Mag. Time & Date
Minimum magnitude displayed is 2.5.

Coastal Water Temperatures

Place Temperature

Stations

Nearby Weather Stations

Station Location Temp. Windchill Dew Point Humidity Wind Precip. Elev Updated Type
                   

Watches & Warnings

Coastal Hazard Statement
Issued: 3:32 AM EDT Mar. 28, 2017 – National Weather Service

... High rip current risk remains in effect from 8 am EDT this
morning through this evening...

* rip currents... wind and wave conditions support the
development of very strong rip currents. These rip currents
will be life threatening to anyone who enters the surf.

Precautionary/preparedness actions...

No one should enter the surf due to life threatening rip
currents.